sensor_id;sensor_type;location;lat;lon;timestamp;P1;durP1;ratioP1;P2;durP2;ratioP2
39994;SDS011;25686;51.908;10.418;2023-07-29T00:01:27;1.75;;;1.65;;
39994;SDS011;25686;51.908;10.418;2023-07-29T00:03:28;2.20;;;1.70;;
39994;SDS011;25686;51.908;10.418;2023-07-29T00:05:32;1.45;;;1.35;;
39994;SDS011;25686;51.908;10.418;2023-07-29T00:07:33;1.70;;;1.60;;
39994;SDS011;25686;51.908;10.418;2023-07-29T00:09:34;3.10;;;1.70;;
39994;SDS011;25686;51.908;10.418;2023-07-29T00:11:35;2.05;;;1.45;;
39994;SDS011;25686;51.908;10.418;2023-07-29T00:13:36;2.38;;;1.92;;
39994;SDS011;25686;51.908;10.418;2023-07-29T00:15:37;1.90;;;1.67;;
39994;SDS011;25686;51.908;10.418;2023-07-29T00:17:39;1.85;;;1.48;;
39994;SDS011;25686;51.908;10.418;2023-07-29T00:19:40;1.60;;;1.50;;
39994;SDS011;25686;51.908;10.418;2023-07-29T00:21:41;2.28;;;1.58;;
39994;SDS011;25686;51.908;10.418;2023-07-29T00:23:42;1.95;;;1.83;;
39994;SDS011;25686;51.908;10.418;2023-07-29T00:25:43;1.70;;;1.60;;
39994;SDS011;25686;51.908;10.418;2023-07-29T00:27:44;1.80;;;1.70;;
39994;SDS011;25686;51.908;10.418;2023-07-29T00:29:45;1.65;;;1.50;;
39994;SDS011;25686;51.908;10.418;2023-07-29T00:31:46;1.83;;;1.58;;
39994;SDS011;25686;51.908;10.418;2023-07-29T00:33:47;2.80;;;1.50;;
39994;SDS011;25686;51.908;10.418;2023-07-29T00:35:48;1.60;;;1.50;;
39994;SDS011;25686;51.908;10.418;2023-07-29T00:37:49;1.88;;;1.30;;
39994;SDS011;25686;51.908;10.418;2023-07-29T00:39:50;1.73;;;1.63;;
39994;SDS011;25686;51.908;10.418;2023-07-29T00:41:50;1.90;;;1.80;;
39994;SDS011;25686;51.908;10.418;2023-07-29T00:43:51;3.08;;;1.58;;
39994;SDS011;25686;51.908;10.418;2023-07-29T00:45:52;1.65;;;1.55;;
39994;SDS011;25686;51.908;10.418;2023-07-29T00:47:53;1.48;;;1.38;;
39994;SDS011;25686;51.908;10.418;2023-07-29T00:49:55;3.13;;;1.50;;
39994;SDS011;25686;51.908;10.418;2023-07-29T00:51:56;3.65;;;1.90;;
39994;SDS011;25686;51.908;10.418;2023-07-29T00:53:56;1.60;;;1.50;;
39994;SDS011;25686;51.908;10.418;2023-07-29T00:55:57;1.60;;;1.48;;
39994;SDS011;25686;51.908;10.418;2023-07-29T00:57:58;1.50;;;1.40;;
39994;SDS011;25686;51.908;10.418;2023-07-29T01:00:00;2.15;;;1.42;;
39994;SDS011;25686;51.908;10.418;2023-07-29T01:02:02;1.35;;;1.25;;
39994;SDS011;25686;51.908;10.418;2023-07-29T01:04:03;2.25;;;1.48;;
39994;SDS011;25686;51.908;10.418;2023-07-29T01:06:19;1.83;;;1.50;;
39994;SDS011;25686;51.908;10.418;2023-07-29T01:11:15;1.60;;;1.50;;
39994;SDS011;25686;51.908;10.418;2023-07-29T01:13:22;1.77;;;1.42;;
39994;SDS011;25686;51.908;10.418;2023-07-29T01:17:29;3.65;;;1.50;;
39994;SDS011;25686;51.908;10.418;2023-07-29T01:21:40;1.60;;;1.50;;
39994;SDS011;25686;51.908;10.418;2023-07-29T01:23:41;1.98;;;1.65;;
39994;SDS011;25686;51.908;10.418;2023-07-29T01:25:43;3.08;;;1.63;;
39994;SDS011;25686;51.908;10.418;2023-07-29T01:27:44;1.73;;;1.63;;
39994;SDS011;25686;51.908;10.418;2023-07-29T01:29:45;1.60;;;1.50;;
39994;SDS011;25686;51.908;10.418;2023-07-29T01:31:46;1.77;;;1.67;;
39994;SDS011;25686;51.908;10.418;2023-07-29T01:34:01;1.55;;;1.45;;
39994;SDS011;25686;51.908;10.418;2023-07-29T01:36:07;1.88;;;1.52;;
39994;SDS011;25686;51.908;10.418;2023-07-29T01:38:18;3.30;;;1.80;;
39994;SDS011;25686;51.908;10.418;2023-07-29T01:40:21;2.47;;;1.67;;
39994;SDS011;25686;51.908;10.418;2023-07-29T01:42:24;1.98;;;1.77;;
39994;SDS011;25686;51.908;10.418;2023-07-29T01:44:25;2.10;;;1.50;;
39994;SDS011;25686;51.908;10.418;2023-07-29T01:46:26;3.78;;;1.95;;
39994;SDS011;25686;51.908;10.418;2023-07-29T01:48:27;2.38;;;1.55;;
39994;SDS011;25686;51.908;10.418;2023-07-29T01:50:31;2.88;;;1.55;;
39994;SDS011;25686;51.908;10.418;2023-07-29T01:52:32;1.65;;;1.52;;
39994;SDS011;25686;51.908;10.418;2023-07-29T01:54:33;3.22;;;1.75;;
39994;SDS011;25686;51.908;10.418;2023-07-29T01:56:34;2.22;;;1.60;;
39994;SDS011;25686;51.908;10.418;2023-07-29T01:58:35;1.88;;;1.65;;
39994;SDS011;25686;51.908;10.418;2023-07-29T02:00:36;1.63;;;1.52;;
39994;SDS011;25686;51.908;10.418;2023-07-29T02:02:37;1.65;;;1.55;;
39994;SDS011;25686;51.908;10.418;2023-07-29T02:04:38;1.98;;;1.77;;
39994;SDS011;25686;51.908;10.418;2023-07-29T02:06:39;2.47;;;1.65;;
39994;SDS011;25686;51.908;10.418;2023-07-29T02:08:40;1.92;;;1.50;;
39994;SDS011;25686;51.908;10.418;2023-07-29T02:10:41;2.80;;;1.60;;
39994;SDS011;25686;51.908;10.418;2023-07-29T02:12:45;2.95;;;1.90;;
39994;SDS011;25686;51.908;10.418;2023-07-29T02:14:46;4.07;;;1.80;;
39994;SDS011;25686;51.908;10.418;2023-07-29T02:16:47;2.13;;;1.80;;
39994;SDS011;25686;51.908;10.418;2023-07-29T02:18:48;1.98;;;1.83;;
39994;SDS011;25686;51.908;10.418;2023-07-29T02:20:49;2.03;;;1.80;;
39994;SDS011;25686;51.908;10.418;2023-07-29T02:22:50;2.35;;;1.83;;
39994;SDS011;25686;51.908;10.418;2023-07-29T02:24:51;3.88;;;1.80;;
39994;SDS011;25686;51.908;10.418;2023-07-29T02:26:52;2.53;;;2.10;;
39994;SDS011;25686;51.908;10.418;2023-07-29T02:28:53;2.83;;;1.90;;
39994;SDS011;25686;51.908;10.418;2023-07-29T02:31:16;1.90;;;1.67;;
39994;SDS011;25686;51.908;10.418;2023-07-29T02:33:16;1.95;;;1.77;;
39994;SDS011;25686;51.908;10.418;2023-07-29T02:35:17;2.17;;;2.08;;
39994;SDS011;25686;51.908;10.418;2023-07-29T02:37:18;2.47;;;2.00;;
39994;SDS011;25686;51.908;10.418;2023-07-29T02:39:20;2.90;;;2.10;;
39994;SDS011;25686;51.908;10.418;2023-07-29T02:41:21;4.50;;;2.00;;
39994;SDS011;25686;51.908;10.418;2023-07-29T02:43:22;2.20;;;1.90;;
39994;SDS011;25686;51.908;10.418;2023-07-29T02:45:23;2.17;;;1.92;;
39994;SDS011;25686;51.908;10.418;2023-07-29T02:47:24;2.08;;;1.88;;
39994;SDS011;25686;51.908;10.418;2023-07-29T02:49:25;2.15;;;1.95;;
39994;SDS011;25686;51.908;10.418;2023-07-29T02:51:26;2.35;;;2.00;;
39994;SDS011;25686;51.908;10.418;2023-07-29T02:53:27;2.05;;;1.92;;
39994;SDS011;25686;51.908;10.418;2023-07-29T02:55:28;5.88;;;1.90;;
39994;SDS011;25686;51.908;10.418;2023-07-29T02:57:29;2.30;;;2.10;;
39994;SDS011;25686;51.908;10.418;2023-07-29T02:59:30;4.63;;;2.10;;
39994;SDS011;25686;51.908;10.418;2023-07-29T03:01:31;1.92;;;1.83;;
39994;SDS011;25686;51.908;10.418;2023-07-29T03:03:32;2.35;;;2.15;;
39994;SDS011;25686;51.908;10.418;2023-07-29T03:05:33;2.20;;;2.00;;
39994;SDS011;25686;51.908;10.418;2023-07-29T03:07:34;2.10;;;1.90;;
39994;SDS011;25686;51.908;10.418;2023-07-29T03:09:36;1.90;;;1.80;;
39994;SDS011;25686;51.908;10.418;2023-07-29T03:11:37;2.33;;;2.13;;
39994;SDS011;25686;51.908;10.418;2023-07-29T03:13:38;4.03;;;1.95;;
39994;SDS011;25686;51.908;10.418;2023-07-29T03:15:39;3.35;;;1.77;;
39994;SDS011;25686;51.908;10.418;2023-07-29T03:17:40;3.47;;;1.90;;
39994;SDS011;25686;51.908;10.418;2023-07-29T03:19:40;3.55;;;1.90;;
39994;SDS011;25686;51.908;10.418;2023-07-29T03:21:41;2.42;;;2.10;;
39994;SDS011;25686;51.908;10.418;2023-07-29T03:23:42;2.67;;;1.80;;
39994;SDS011;25686;51.908;10.418;2023-07-29T03:25:43;2.08;;;1.88;;
39994;SDS011;25686;51.908;10.418;2023-07-29T03:27:45;3.15;;;1.95;;
39994;SDS011;25686;51.908;10.418;2023-07-29T03:29:49;3.03;;;2.15;;
39994;SDS011;25686;51.908;10.418;2023-07-29T03:31:50;2.38;;;1.95;;
39994;SDS011;25686;51.908;10.418;2023-07-29T03:33:51;3.53;;;2.00;;
39994;SDS011;25686;51.908;10.418;2023-07-29T03:35:52;1.80;;;1.70;;
39994;SDS011;25686;51.908;10.418;2023-07-29T03:37:53;2.15;;;1.80;;
39994;SDS011;25686;51.908;10.418;2023-07-29T03:39:54;2.78;;;1.60;;
39994;SDS011;25686;51.908;10.418;2023-07-29T03:41:55;2.00;;;1.90;;
39994;SDS011;25686;51.908;10.418;2023-07-29T03:43:56;2.20;;;1.80;;
39994;SDS011;25686;51.908;10.418;2023-07-29T03:45:57;3.03;;;1.88;;
39994;SDS011;25686;51.908;10.418;2023-07-29T03:47:58;1.58;;;1.48;;
39994;SDS011;25686;51.908;10.418;2023-07-29T03:49:59;3.30;;;1.90;;
39994;SDS011;25686;51.908;10.418;2023-07-29T03:52:00;1.75;;;1.48;;
39994;SDS011;25686;51.908;10.418;2023-07-29T03:54:01;2.20;;;2.00;;
39994;SDS011;25686;51.908;10.418;2023-07-29T03:56:02;2.17;;;1.95;;
39994;SDS011;25686;51.908;10.418;2023-07-29T03:58:03;2.25;;;1.98;;
39994;SDS011;25686;51.908;10.418;2023-07-29T04:00:04;3.25;;;1.80;;
39994;SDS011;25686;51.908;10.418;2023-07-29T04:02:05;2.28;;;1.80;;
39994;SDS011;25686;51.908;10.418;2023-07-29T04:04:06;2.10;;;1.90;;
39994;SDS011;25686;51.908;10.418;2023-07-29T04:06:07;4.22;;;2.25;;
39994;SDS011;25686;51.908;10.418;2023-07-29T04:08:08;2.75;;;1.77;;
39994;SDS011;25686;51.908;10.418;2023-07-29T04:10:10;4.18;;;1.63;;
39994;SDS011;25686;51.908;10.418;2023-07-29T04:12:11;2.00;;;1.80;;
39994;SDS011;25686;51.908;10.418;2023-07-29T04:14:12;2.25;;;1.95;;
39994;SDS011;25686;51.908;10.418;2023-07-29T04:16:13;1.92;;;1.83;;
39994;SDS011;25686;51.908;10.418;2023-07-29T04:18:14;2.90;;;2.05;;
39994;SDS011;25686;51.908;10.418;2023-07-29T04:20:15;4.00;;;1.90;;
39994;SDS011;25686;51.908;10.418;2023-07-29T04:22:16;2.58;;;2.20;;
39994;SDS011;25686;51.908;10.418;2023-07-29T04:24:17;4.43;;;1.80;;
39994;SDS011;25686;51.908;10.418;2023-07-29T04:26:20;3.20;;;2.20;;
39994;SDS011;25686;51.908;10.418;2023-07-29T04:28:21;2.42;;;1.92;;
39994;SDS011;25686;51.908;10.418;2023-07-29T04:30:22;2.15;;;1.90;;
39994;SDS011;25686;51.908;10.418;2023-07-29T04:32:23;1.70;;;1.60;;
39994;SDS011;25686;51.908;10.418;2023-07-29T04:34:24;2.85;;;2.00;;
39994;SDS011;25686;51.908;10.418;2023-07-29T04:36:25;5.28;;;1.98;;
39994;SDS011;25686;51.908;10.418;2023-07-29T04:38:30;1.98;;;1.80;;
39994;SDS011;25686;51.908;10.418;2023-07-29T04:40:35;2.33;;;1.73;;
39994;SDS011;25686;51.908;10.418;2023-07-29T04:42:36;1.85;;;1.70;;
39994;SDS011;25686;51.908;10.418;2023-07-29T04:44:37;1.95;;;1.60;;
39994;SDS011;25686;51.908;10.418;2023-07-29T04:46:39;2.95;;;1.70;;
39994;SDS011;25686;51.908;10.418;2023-07-29T04:48:39;1.70;;;1.50;;
39994;SDS011;25686;51.908;10.418;2023-07-29T04:50:40;1.42;;;1.33;;
39994;SDS011;25686;51.908;10.418;2023-07-29T04:52:41;1.88;;;1.30;;
39994;SDS011;25686;51.908;10.418;2023-07-29T04:54:42;1.73;;;1.63;;
39994;SDS011;25686;51.908;10.418;2023-07-29T04:56:43;1.27;;;1.20;;
39994;SDS011;25686;51.908;10.418;2023-07-29T04:58:45;1.40;;;1.30;;
39994;SDS011;25686;51.908;10.418;2023-07-29T05:00:46;2.40;;;1.17;;
39994;SDS011;25686;51.908;10.418;2023-07-29T05:02:47;1.20;;;1.10;;
39994;SDS011;25686;51.908;10.418;2023-07-29T05:04:48;1.30;;;1.20;;
39994;SDS011;25686;51.908;10.418;2023-07-29T05:06:49;1.20;;;1.10;;
39994;SDS011;25686;51.908;10.418;2023-07-29T05:08:50;1.13;;;1.02;;
39994;SDS011;25686;51.908;10.418;2023-07-29T05:10:52;1.27;;;1.17;;
39994;SDS011;25686;51.908;10.418;2023-07-29T05:12:54;2.50;;;1.30;;
39994;SDS011;25686;51.908;10.418;2023-07-29T05:14:55;2.35;;;1.40;;
39994;SDS011;25686;51.908;10.418;2023-07-29T05:16:56;3.28;;;1.30;;
39994;SDS011;25686;51.908;10.418;2023-07-29T05:18:57;1.55;;;1.23;;
39994;SDS011;25686;51.908;10.418;2023-07-29T05:20:58;2.72;;;1.40;;
39994;SDS011;25686;51.908;10.418;2023-07-29T05:22:59;1.40;;;1.30;;
39994;SDS011;25686;51.908;10.418;2023-07-29T05:25:00;1.23;;;1.20;;
39994;SDS011;25686;51.908;10.418;2023-07-29T05:27:01;1.40;;;1.30;;
39994;SDS011;25686;51.908;10.418;2023-07-29T05:29:02;2.78;;;1.50;;
39994;SDS011;25686;51.908;10.418;2023-07-29T05:31:04;3.15;;;1.50;;
39994;SDS011;25686;51.908;10.418;2023-07-29T05:33:04;3.97;;;1.55;;
39994;SDS011;25686;51.908;10.418;2023-07-29T05:35:07;4.32;;;1.80;;
39994;SDS011;25686;51.908;10.418;2023-07-29T05:37:08;5.53;;;2.20;;
39994;SDS011;25686;51.908;10.418;2023-07-29T05:39:10;7.07;;;2.10;;
39994;SDS011;25686;51.908;10.418;2023-07-29T05:41:12;3.45;;;1.73;;
39994;SDS011;25686;51.908;10.418;2023-07-29T05:43:13;2.83;;;1.92;;
39994;SDS011;25686;51.908;10.418;2023-07-29T05:45:14;4.85;;;2.20;;
39994;SDS011;25686;51.908;10.418;2023-07-29T05:47:15;4.25;;;1.73;;
39994;SDS011;25686;51.908;10.418;2023-07-29T05:49:16;3.47;;;1.80;;
39994;SDS011;25686;51.908;10.418;2023-07-29T05:51:17;1.88;;;1.50;;
39994;SDS011;25686;51.908;10.418;2023-07-29T05:53:19;3.10;;;2.00;;
39994;SDS011;25686;51.908;10.418;2023-07-29T05:55:20;3.17;;;1.58;;
39994;SDS011;25686;51.908;10.418;2023-07-29T05:57:21;2.33;;;1.70;;
39994;SDS011;25686;51.908;10.418;2023-07-29T05:59:22;2.88;;;1.83;;
39994;SDS011;25686;51.908;10.418;2023-07-29T06:01:23;4.68;;;1.77;;
39994;SDS011;25686;51.908;10.418;2023-07-29T06:03:24;2.90;;;1.58;;
39994;SDS011;25686;51.908;10.418;2023-07-29T06:05:24;2.15;;;1.50;;
39994;SDS011;25686;51.908;10.418;2023-07-29T06:07:25;5.97;;;1.60;;
39994;SDS011;25686;51.908;10.418;2023-07-29T06:09:29;2.05;;;1.25;;
39994;SDS011;25686;51.908;10.418;2023-07-29T06:11:30;3.00;;;1.38;;
39994;SDS011;25686;51.908;10.418;2023-07-29T06:13:32;2.08;;;1.45;;
39994;SDS011;25686;51.908;10.418;2023-07-29T06:15:33;1.90;;;1.48;;
39994;SDS011;25686;51.908;10.418;2023-07-29T06:17:34;3.03;;;1.35;;
39994;SDS011;25686;51.908;10.418;2023-07-29T06:19:35;2.83;;;1.48;;
39994;SDS011;25686;51.908;10.418;2023-07-29T06:21:36;1.83;;;1.48;;
39994;SDS011;25686;51.908;10.418;2023-07-29T06:23:37;1.70;;;1.30;;
39994;SDS011;25686;51.908;10.418;2023-07-29T06:25:38;2.85;;;1.48;;
39994;SDS011;25686;51.908;10.418;2023-07-29T06:27:39;1.88;;;1.50;;
39994;SDS011;25686;51.908;10.418;2023-07-29T06:29:39;5.97;;;1.55;;
39994;SDS011;25686;51.908;10.418;2023-07-29T06:31:40;1.88;;;1.00;;
39994;SDS011;25686;51.908;10.418;2023-07-29T06:33:41;3.67;;;1.08;;
39994;SDS011;25686;51.908;10.418;2023-07-29T06:35:42;7.13;;;0.93;;
39994;SDS011;25686;51.908;10.418;2023-07-29T06:37:43;4.03;;;1.33;;
39994;SDS011;25686;51.908;10.418;2023-07-29T06:39:44;3.65;;;1.30;;
39994;SDS011;25686;51.908;10.418;2023-07-29T06:41:45;2.08;;;1.25;;
39994;SDS011;25686;51.908;10.418;2023-07-29T06:43:46;1.65;;;1.02;;
39994;SDS011;25686;51.908;10.418;2023-07-29T06:45:47;1.73;;;0.80;;
39994;SDS011;25686;51.908;10.418;2023-07-29T06:47:48;2.85;;;0.93;;
39994;SDS011;25686;51.908;10.418;2023-07-29T06:49:49;0.57;;;0.57;;
39994;SDS011;25686;51.908;10.418;2023-07-29T06:51:50;0.60;;;0.60;;
39994;SDS011;25686;51.908;10.418;2023-07-29T06:53:51;1.48;;;0.60;;
39994;SDS011;25686;51.908;10.418;2023-07-29T06:55:52;3.28;;;0.70;;
39994;SDS011;25686;51.908;10.418;2023-07-29T06:57:53;0.47;;;0.47;;
39994;SDS011;25686;51.908;10.418;2023-07-29T06:59:54;1.67;;;0.85;;
39994;SDS011;25686;51.908;10.418;2023-07-29T07:01:55;0.63;;;0.63;;
39994;SDS011;25686;51.908;10.418;2023-07-29T07:03:56;2.15;;;0.70;;
39994;SDS011;25686;51.908;10.418;2023-07-29T07:05:58;1.95;;;0.70;;
39994;SDS011;25686;51.908;10.418;2023-07-29T07:07:59;0.70;;;0.70;;
39994;SDS011;25686;51.908;10.418;2023-07-29T07:10:00;0.88;;;0.88;;
39994;SDS011;25686;51.908;10.418;2023-07-29T07:12:01;1.70;;;0.77;;
39994;SDS011;25686;51.908;10.418;2023-07-29T07:14:02;0.80;;;0.80;;
39994;SDS011;25686;51.908;10.418;2023-07-29T07:16:03;2.05;;;0.80;;
39994;SDS011;25686;51.908;10.418;2023-07-29T07:18:04;3.35;;;1.08;;
39994;SDS011;25686;51.908;10.418;2023-07-29T07:20:06;0.85;;;0.60;;
39994;SDS011;25686;51.908;10.418;2023-07-29T07:22:07;1.63;;;0.68;;
39994;SDS011;25686;51.908;10.418;2023-07-29T07:24:08;2.58;;;0.60;;
39994;SDS011;25686;51.908;10.418;2023-07-29T07:26:09;0.45;;;0.45;;
39994;SDS011;25686;51.908;10.418;2023-07-29T07:28:10;1.63;;;0.60;;
39994;SDS011;25686;51.908;10.418;2023-07-29T07:30:11;2.72;;;0.40;;
39994;SDS011;25686;51.908;10.418;2023-07-29T07:32:12;1.60;;;0.60;;
39994;SDS011;25686;51.908;10.418;2023-07-29T07:34:13;0.50;;;0.50;;
39994;SDS011;25686;51.908;10.418;2023-07-29T07:36:14;2.58;;;0.57;;
39994;SDS011;25686;51.908;10.418;2023-07-29T07:38:15;2.22;;;0.60;;
39994;SDS011;25686;51.908;10.418;2023-07-29T07:40:16;1.52;;;0.47;;
39994;SDS011;25686;51.908;10.418;2023-07-29T07:42:17;1.30;;;0.60;;
39994;SDS011;25686;51.908;10.418;2023-07-29T07:44:18;1.02;;;0.73;;
39994;SDS011;25686;51.908;10.418;2023-07-29T07:46:19;0.88;;;0.60;;
39994;SDS011;25686;51.908;10.418;2023-07-29T07:48:20;2.45;;;0.60;;
39994;SDS011;25686;51.908;10.418;2023-07-29T07:50:21;1.88;;;0.60;;
39994;SDS011;25686;51.908;10.418;2023-07-29T07:52:24;4.10;;;0.60;;
39994;SDS011;25686;51.908;10.418;2023-07-29T07:54:25;3.00;;;0.60;;
39994;SDS011;25686;51.908;10.418;2023-07-29T07:56:25;1.35;;;1.02;;
39994;SDS011;25686;51.908;10.418;2023-07-29T07:58:26;1.25;;;0.60;;
39994;SDS011;25686;51.908;10.418;2023-07-29T08:00:27;1.33;;;0.77;;
39994;SDS011;25686;51.908;10.418;2023-07-29T08:02:28;2.75;;;0.70;;
39994;SDS011;25686;51.908;10.418;2023-07-29T08:04:29;0.73;;;0.50;;
39994;SDS011;25686;51.908;10.418;2023-07-29T08:06:31;1.20;;;0.70;;
39994;SDS011;25686;51.908;10.418;2023-07-29T08:08:32;1.52;;;0.52;;
39994;SDS011;25686;51.908;10.418;2023-07-29T08:10:33;5.05;;;0.88;;
39994;SDS011;25686;51.908;10.418;2023-07-29T08:12:34;1.85;;;0.70;;
39994;SDS011;25686;51.908;10.418;2023-07-29T08:14:35;1.88;;;0.82;;
39994;SDS011;25686;51.908;10.418;2023-07-29T08:16:36;1.55;;;1.20;;
39994;SDS011;25686;51.908;10.418;2023-07-29T08:18:37;1.20;;;1.05;;
39994;SDS011;25686;51.908;10.418;2023-07-29T08:20:38;4.57;;;2.00;;
39994;SDS011;25686;51.908;10.418;2023-07-29T08:22:39;4.50;;;2.25;;
39994;SDS011;25686;51.908;10.418;2023-07-29T08:24:40;6.10;;;2.35;;
39994;SDS011;25686;51.908;10.418;2023-07-29T08:26:41;2.53;;;2.28;;
39994;SDS011;25686;51.908;10.418;2023-07-29T08:28:42;2.53;;;2.33;;
39994;SDS011;25686;51.908;10.418;2023-07-29T08:30:43;2.90;;;2.60;;
39994;SDS011;25686;51.908;10.418;2023-07-29T08:32:44;3.25;;;2.58;;
39994;SDS011;25686;51.908;10.418;2023-07-29T08:34:45;3.47;;;2.40;;
39994;SDS011;25686;51.908;10.418;2023-07-29T08:36:46;4.22;;;3.10;;
39994;SDS011;25686;51.908;10.418;2023-07-29T08:38:47;2.40;;;2.20;;
39994;SDS011;25686;51.908;10.418;2023-07-29T08:42:49;3.42;;;2.10;;
39994;SDS011;25686;51.908;10.418;2023-07-29T08:44:50;3.55;;;2.15;;
39994;SDS011;25686;51.908;10.418;2023-07-29T08:46:52;2.63;;;2.40;;
39994;SDS011;25686;51.908;10.418;2023-07-29T08:48:55;2.20;;;2.10;;
39994;SDS011;25686;51.908;10.418;2023-07-29T08:50:56;2.78;;;2.10;;
39994;SDS011;25686;51.908;10.418;2023-07-29T08:52:59;2.22;;;1.95;;
39994;SDS011;25686;51.908;10.418;2023-07-29T08:55:00;3.20;;;2.13;;
39994;SDS011;25686;51.908;10.418;2023-07-29T08:57:01;2.33;;;2.10;;
39994;SDS011;25686;51.908;10.418;2023-07-29T08:59:03;2.55;;;1.90;;
39994;SDS011;25686;51.908;10.418;2023-07-29T09:01:05;2.90;;;2.08;;
39994;SDS011;25686;51.908;10.418;2023-07-29T09:03:06;2.22;;;2.13;;
39994;SDS011;25686;51.908;10.418;2023-07-29T09:05:07;2.38;;;1.98;;
39994;SDS011;25686;51.908;10.418;2023-07-29T09:07:08;2.22;;;2.10;;
39994;SDS011;25686;51.908;10.418;2023-07-29T09:09:10;2.65;;;2.15;;
39994;SDS011;25686;51.908;10.418;2023-07-29T09:11:12;2.60;;;2.10;;
39994;SDS011;25686;51.908;10.418;2023-07-29T09:13:14;2.67;;;2.47;;
39994;SDS011;25686;51.908;10.418;2023-07-29T09:15:25;2.63;;;2.42;;
39994;SDS011;25686;51.908;10.418;2023-07-29T09:17:27;3.22;;;2.47;;
39994;SDS011;25686;51.908;10.418;2023-07-29T09:19:32;2.63;;;2.30;;
39994;SDS011;25686;51.908;10.418;2023-07-29T09:21:34;2.50;;;2.30;;
39994;SDS011;25686;51.908;10.418;2023-07-29T09:23:42;2.10;;;2.00;;
39994;SDS011;25686;51.908;10.418;2023-07-29T09:25:43;5.95;;;2.47;;
39994;SDS011;25686;51.908;10.418;2023-07-29T09:27:46;2.05;;;1.92;;
39994;SDS011;25686;51.908;10.418;2023-07-29T09:29:47;2.13;;;2.00;;
39994;SDS011;25686;51.908;10.418;2023-07-29T09:31:48;2.22;;;2.10;;
39994;SDS011;25686;51.908;10.418;2023-07-29T09:33:50;2.45;;;2.17;;
39994;SDS011;25686;51.908;10.418;2023-07-29T09:35:51;2.33;;;1.90;;
39994;SDS011;25686;51.908;10.418;2023-07-29T09:37:53;2.03;;;1.92;;
39994;SDS011;25686;51.908;10.418;2023-07-29T09:39:54;4.18;;;1.98;;
39994;SDS011;25686;51.908;10.418;2023-07-29T09:41:55;2.22;;;2.03;;
39994;SDS011;25686;51.908;10.418;2023-07-29T09:44:00;3.05;;;2.10;;
39994;SDS011;25686;51.908;10.418;2023-07-29T09:46:04;3.67;;;2.25;;
39994;SDS011;25686;51.908;10.418;2023-07-29T09:48:08;2.03;;;1.85;;
39994;SDS011;25686;51.908;10.418;2023-07-29T09:50:11;2.40;;;2.20;;
39994;SDS011;25686;51.908;10.418;2023-07-29T09:52:12;4.15;;;2.15;;
39994;SDS011;25686;51.908;10.418;2023-07-29T09:54:14;3.15;;;1.95;;
39994;SDS011;25686;51.908;10.418;2023-07-29T09:56:17;3.00;;;2.00;;
39994;SDS011;25686;51.908;10.418;2023-07-29T09:58:27;3.85;;;1.88;;
39994;SDS011;25686;51.908;10.418;2023-07-29T10:00:29;2.17;;;2.00;;
39994;SDS011;25686;51.908;10.418;2023-07-29T10:02:30;2.30;;;2.03;;
39994;SDS011;25686;51.908;10.418;2023-07-29T10:04:31;2.00;;;1.90;;
39994;SDS011;25686;51.908;10.418;2023-07-29T10:06:34;2.55;;;2.10;;
39994;SDS011;25686;51.908;10.418;2023-07-29T10:08:35;6.97;;;1.58;;
39994;SDS011;25686;51.908;10.418;2023-07-29T10:10:38;5.50;;;1.77;;
39994;SDS011;25686;51.908;10.418;2023-07-29T10:12:39;1.80;;;1.70;;
39994;SDS011;25686;51.908;10.418;2023-07-29T10:14:42;5.00;;;1.73;;
39994;SDS011;25686;51.908;10.418;2023-07-29T10:16:43;1.92;;;1.70;;
39994;SDS011;25686;51.908;10.418;2023-07-29T10:18:46;4.50;;;1.85;;
39994;SDS011;25686;51.908;10.418;2023-07-29T10:20:48;1.73;;;1.63;;
39994;SDS011;25686;51.908;10.418;2023-07-29T10:22:51;3.15;;;1.60;;
39994;SDS011;25686;51.908;10.418;2023-07-29T10:24:53;1.88;;;1.77;;
39994;SDS011;25686;51.908;10.418;2023-07-29T10:26:57;3.10;;;1.60;;
39994;SDS011;25686;51.908;10.418;2023-07-29T10:28:58;3.55;;;1.77;;
39994;SDS011;25686;51.908;10.418;2023-07-29T10:31:04;2.33;;;2.10;;
39994;SDS011;25686;51.908;10.418;2023-07-29T10:33:05;2.30;;;2.10;;
39994;SDS011;25686;51.908;10.418;2023-07-29T10:35:07;3.45;;;2.08;;
39994;SDS011;25686;51.908;10.418;2023-07-29T10:37:08;2.13;;;1.92;;
39994;SDS011;25686;51.908;10.418;2023-07-29T10:39:10;2.50;;;2.30;;
39994;SDS011;25686;51.908;10.418;2023-07-29T10:41:11;2.13;;;2.00;;
39994;SDS011;25686;51.908;10.418;2023-07-29T10:43:12;1.63;;;1.52;;
39994;SDS011;25686;51.908;10.418;2023-07-29T10:45:20;3.85;;;1.70;;
39994;SDS011;25686;51.908;10.418;2023-07-29T10:47:23;2.22;;;1.42;;
39994;SDS011;25686;51.908;10.418;2023-07-29T10:49:24;2.03;;;1.80;;
39994;SDS011;25686;51.908;10.418;2023-07-29T10:51:34;3.10;;;1.75;;
39994;SDS011;25686;51.908;10.418;2023-07-29T10:53:36;2.08;;;1.80;;
39994;SDS011;25686;51.908;10.418;2023-07-29T10:55:37;2.25;;;1.77;;
39994;SDS011;25686;51.908;10.418;2023-07-29T10:57:39;1.77;;;1.60;;
39994;SDS011;25686;51.908;10.418;2023-07-29T10:59:55;2.28;;;1.75;;
39994;SDS011;25686;51.908;10.418;2023-07-29T11:01:57;2.13;;;1.98;;
39994;SDS011;25686;51.908;10.418;2023-07-29T11:06:18;4.43;;;1.70;;
39994;SDS011;25686;51.908;10.418;2023-07-29T11:08:29;2.20;;;2.00;;
39994;SDS011;25686;51.908;10.418;2023-07-29T11:10:30;5.30;;;2.40;;
39994;SDS011;25686;51.908;10.418;2023-07-29T11:12:46;4.30;;;2.60;;
39994;SDS011;25686;51.908;10.418;2023-07-29T11:14:47;5.82;;;2.78;;
39994;SDS011;25686;51.908;10.418;2023-07-29T11:16:48;5.68;;;3.00;;
39994;SDS011;25686;51.908;10.418;2023-07-29T11:18:50;3.88;;;2.83;;
39994;SDS011;25686;51.908;10.418;2023-07-29T11:20:51;4.90;;;2.97;;
39994;SDS011;25686;51.908;10.418;2023-07-29T11:22:54;3.85;;;3.10;;
39994;SDS011;25686;51.908;10.418;2023-07-29T11:24:56;6.03;;;3.25;;
39994;SDS011;25686;51.908;10.418;2023-07-29T11:26:57;3.65;;;3.00;;
39994;SDS011;25686;51.908;10.418;2023-07-29T11:28:58;5.00;;;2.90;;
39994;SDS011;25686;51.908;10.418;2023-07-29T11:30:59;4.38;;;3.03;;
39994;SDS011;25686;51.908;10.418;2023-07-29T11:33:00;3.60;;;3.30;;
39994;SDS011;25686;51.908;10.418;2023-07-29T11:35:08;5.70;;;3.50;;
39994;SDS011;25686;51.908;10.418;2023-07-29T11:37:16;4.50;;;4.10;;
39994;SDS011;25686;51.908;10.418;2023-07-29T11:39:17;4.93;;;4.03;;
39994;SDS011;25686;51.908;10.418;2023-07-29T11:41:19;4.53;;;4.13;;
39994;SDS011;25686;51.908;10.418;2023-07-29T11:43:21;8.52;;;4.30;;
39994;SDS011;25686;51.908;10.418;2023-07-29T11:45:22;5.35;;;3.90;;
39994;SDS011;25686;51.908;10.418;2023-07-29T11:47:23;4.30;;;3.90;;
39994;SDS011;25686;51.908;10.418;2023-07-29T11:49:25;5.53;;;4.03;;
39994;SDS011;25686;51.908;10.418;2023-07-29T11:51:26;5.45;;;4.05;;
39994;SDS011;25686;51.908;10.418;2023-07-29T11:53:29;4.85;;;4.13;;
39994;SDS011;25686;51.908;10.418;2023-07-29T11:55:30;4.40;;;4.00;;
39994;SDS011;25686;51.908;10.418;2023-07-29T11:57:36;5.18;;;4.10;;
39994;SDS011;25686;51.908;10.418;2023-07-29T11:59:38;5.85;;;4.00;;
39994;SDS011;25686;51.908;10.418;2023-07-29T12:01:40;4.57;;;4.18;;
39994;SDS011;25686;51.908;10.418;2023-07-29T12:03:41;4.75;;;4.00;;
39994;SDS011;25686;51.908;10.418;2023-07-29T12:05:42;6.75;;;4.22;;
39994;SDS011;25686;51.908;10.418;2023-07-29T12:07:43;5.38;;;3.85;;
39994;SDS011;25686;51.908;10.418;2023-07-29T12:09:45;3.90;;;3.60;;
39994;SDS011;25686;51.908;10.418;2023-07-29T12:11:47;4.10;;;3.70;;
39994;SDS011;25686;51.908;10.418;2023-07-29T12:13:48;6.30;;;4.10;;